createdAt,value
2019-06-20T00:00:06.197Z,2.70
2019-06-20T00:02:34.414Z,3.25
2019-06-20T00:05:02.978Z,2.87
2019-06-20T00:07:31.257Z,2.92
2019-06-20T00:09:59.469Z,2.83
2019-06-20T00:12:27.760Z,2.80
2019-06-20T00:14:55.965Z,2.95
2019-06-20T00:17:24.165Z,3.02
2019-06-20T00:19:52.375Z,2.80
2019-06-20T00:22:20.629Z,2.83
2019-06-20T00:24:48.832Z,2.83
2019-06-20T00:27:17.085Z,3.40
2019-06-20T00:29:45.299Z,3.02
2019-06-20T00:32:13.504Z,3.22
2019-06-20T00:34:41.751Z,2.70
2019-06-20T00:37:09.940Z,2.60
2019-06-20T00:39:38.163Z,2.87
2019-06-20T00:42:06.370Z,3.00
2019-06-20T00:44:34.577Z,2.77
2019-06-20T00:47:02.788Z,2.70
2019-06-20T00:49:30.989Z,2.98
2019-06-20T00:51:59.199Z,2.72
2019-06-20T00:54:27.402Z,2.85
2019-06-20T00:56:55.611Z,2.83
2019-06-20T00:59:23.812Z,3.33
2019-06-20T01:01:52.027Z,3.37
2019-06-20T01:04:20.232Z,3.20
2019-06-20T01:06:48.447Z,3.00
2019-06-20T01:09:16.652Z,3.20
2019-06-20T01:11:44.851Z,2.75
2019-06-20T01:14:13.064Z,2.87
2019-06-20T01:16:41.277Z,2.90
2019-06-20T01:19:09.474Z,2.95
2019-06-20T01:21:37.676Z,3.45
2019-06-20T01:24:05.890Z,2.80
2019-06-20T01:26:34.090Z,3.12
2019-06-20T01:29:02.366Z,3.00
2019-06-20T01:31:30.580Z,2.90
2019-06-20T01:33:58.792Z,3.42
2019-06-20T01:36:27.003Z,3.12
2019-06-20T01:38:55.239Z,2.95
2019-06-20T01:41:23.614Z,3.20
2019-06-20T01:43:51.828Z,3.52
2019-06-20T01:46:20.048Z,2.85
2019-06-20T01:48:48.272Z,2.90
2019-06-20T01:51:16.475Z,2.90
2019-06-20T01:53:44.690Z,3.20
2019-06-20T01:56:12.956Z,2.98
2019-06-20T01:58:41.180Z,3.35
2019-06-20T02:01:09.427Z,3.05
2019-06-20T02:03:37.684Z,3.05
2019-06-20T02:06:05.886Z,3.20
2019-06-20T02:08:34.092Z,2.92
2019-06-20T02:11:02.307Z,3.30
2019-06-20T02:13:30.508Z,2.80
2019-06-20T02:15:58.736Z,3.30
2019-06-20T02:18:26.941Z,2.67
2019-06-20T02:20:57.345Z,3.52
2019-06-20T02:25:53.404Z,3.17
2019-06-20T02:28:22.486Z,3.12
2019-06-20T02:30:50.691Z,3.30
2019-06-20T02:33:18.885Z,3.25
2019-06-20T02:35:47.094Z,3.08
2019-06-20T02:38:15.297Z,3.05
2019-06-20T02:40:43.580Z,3.33
2019-06-20T02:43:11.788Z,3.37
2019-06-20T02:45:40.172Z,3.80
2019-06-20T02:48:08.403Z,4.17
2019-06-20T02:50:36.577Z,4.00
2019-06-20T02:53:05.067Z,4.40
2019-06-20T02:55:33.267Z,3.85
2019-06-20T02:58:01.544Z,3.98
2019-06-20T03:00:38.748Z,3.62
2019-06-20T03:03:06.976Z,3.83
2019-06-20T03:05:35.185Z,3.87
2019-06-20T03:08:03.436Z,4.10
2019-06-20T03:10:31.688Z,4.20
2019-06-20T03:12:59.883Z,4.00
2019-06-20T03:15:28.105Z,4.30
2019-06-20T03:17:56.304Z,4.00
2019-06-20T03:20:24.540Z,4.65
2019-06-20T03:22:52.773Z,4.00
2019-06-20T03:25:21.024Z,4.30
2019-06-20T03:27:49.378Z,5.22
2019-06-20T03:30:17.592Z,5.22
2019-06-20T03:32:45.800Z,5.45
2019-06-20T03:35:13.996Z,5.45
2019-06-20T03:37:42.219Z,5.28
2019-06-20T03:40:10.498Z,5.62
2019-06-20T03:42:38.730Z,5.53
2019-06-20T03:45:06.942Z,5.35
2019-06-20T03:47:35.165Z,5.78
2019-06-20T03:50:05.404Z,5.65
2019-06-20T03:52:33.608Z,5.60
2019-06-20T03:55:01.892Z,5.75
2019-06-20T03:57:30.105Z,5.60
2019-06-20T03:59:58.309Z,5.67
2019-06-20T04:02:26.520Z,5.97
2019-06-20T04:04:54.742Z,5.58
2019-06-20T04:07:22.954Z,6.28
2019-06-20T04:09:51.165Z,5.60
2019-06-20T04:12:19.389Z,6.00
2019-06-20T04:14:49.094Z,6.25
2019-06-20T04:17:17.566Z,6.62
2019-06-20T04:19:45.804Z,6.08
2019-06-20T04:22:14.019Z,6.10
2019-06-20T04:24:42.228Z,6.20
2019-06-20T04:27:10.480Z,6.10
2019-06-20T04:29:38.695Z,6.42
2019-06-20T04:32:06.923Z,4.95
2019-06-20T04:34:35.155Z,5.47
2019-06-20T04:37:03.359Z,5.40
2019-06-20T04:39:31.588Z,4.83
2019-06-20T04:41:59.828Z,4.80
2019-06-20T04:44:28.079Z,4.03
2019-06-20T04:46:57.939Z,4.72
2019-06-20T04:49:26.209Z,4.40
2019-06-20T04:51:54.416Z,4.53
2019-06-20T04:54:22.620Z,4.12
2019-06-20T04:56:50.828Z,3.98
2019-06-20T04:59:19.046Z,3.95
2019-06-20T05:01:47.248Z,4.10
2019-06-20T05:04:15.535Z,3.98
2019-06-20T05:06:45.370Z,4.10
2019-06-20T05:09:13.571Z,4.37
2019-06-20T05:11:41.805Z,3.60
2019-06-20T05:14:10.009Z,3.60
2019-06-20T05:16:38.232Z,3.40
2019-06-20T05:19:06.485Z,3.40
2019-06-20T05:21:34.688Z,3.30
2019-06-20T05:24:02.905Z,3.50
2019-06-20T05:26:31.105Z,3.50
2019-06-20T05:28:59.316Z,3.27
2019-06-20T05:31:27.512Z,3.30
2019-06-20T05:33:55.750Z,3.45
2019-06-20T05:36:23.951Z,3.40
2019-06-20T05:38:52.219Z,3.45
2019-06-20T05:41:20.452Z,3.50
2019-06-20T05:43:48.655Z,3.35
2019-06-20T05:46:16.864Z,3.77
2019-06-20T05:48:45.095Z,3.65
2019-06-20T05:51:13.316Z,4.53
2019-06-20T05:53:41.508Z,3.52
2019-06-20T05:56:09.732Z,3.45
2019-06-20T05:58:37.943Z,3.60
2019-06-20T06:01:06.164Z,3.27
2019-06-20T06:03:34.371Z,4.03
2019-06-20T06:06:02.584Z,3.67
2019-06-20T06:08:30.807Z,3.47
2019-06-20T06:10:59.003Z,3.85
2019-06-20T06:13:27.219Z,3.85
2019-06-20T06:15:55.435Z,4.17
2019-06-20T06:18:23.655Z,3.45
2019-06-20T06:20:51.855Z,3.45
2019-06-20T06:23:20.063Z,3.50
2019-06-20T06:25:48.277Z,3.30
2019-06-20T06:28:16.495Z,3.20
2019-06-20T06:30:44.770Z,3.58
2019-06-20T06:33:13.419Z,4.00
2019-06-20T06:35:41.665Z,3.35
2019-06-20T06:38:10.106Z,3.25
2019-06-20T06:40:38.272Z,4.12
2019-06-20T06:43:06.507Z,4.17
2019-06-20T06:45:34.692Z,3.08
2019-06-20T06:48:02.897Z,2.58
2019-06-20T06:50:31.112Z,2.60
2019-06-20T06:52:59.309Z,2.12
2019-06-20T06:55:28.011Z,2.15
2019-06-20T06:57:56.381Z,2.12
2019-06-20T07:00:24.610Z,2.30
2019-06-20T07:02:53.115Z,2.00
2019-06-20T07:05:21.322Z,2.05
2019-06-20T07:07:49.573Z,2.08
2019-06-20T07:10:17.788Z,1.95
2019-06-20T07:12:45.985Z,1.95
2019-06-20T07:15:14.866Z,2.22
2019-06-20T07:17:43.126Z,2.12
2019-06-20T07:20:14.931Z,1.98
2019-06-20T07:22:41.327Z,1.87
2019-06-20T07:25:09.563Z,2.00
2019-06-20T07:27:37.898Z,1.82
2019-06-20T07:30:07.085Z,1.80
2019-06-20T07:32:35.284Z,1.87
2019-06-20T07:35:05.797Z,1.70
2019-06-20T07:37:34.005Z,1.67
2019-06-20T07:40:02.486Z,1.92
2019-06-20T07:42:30.729Z,1.50
2019-06-20T07:44:58.944Z,1.40
2019-06-20T07:47:27.190Z,1.60
2019-06-20T07:49:55.442Z,1.30
2019-06-20T07:52:23.731Z,1.70
2019-06-20T07:54:51.925Z,1.50
2019-06-20T07:57:20.200Z,1.50
2019-06-20T07:59:48.416Z,1.30
2019-06-20T08:02:16.624Z,1.52
2019-06-20T08:04:44.837Z,1.32
2019-06-20T08:07:13.053Z,1.75
2019-06-20T08:09:45.106Z,1.47
2019-06-20T08:12:11.333Z,1.50
2019-06-20T08:14:39.516Z,1.45
2019-06-20T08:17:07.736Z,1.37
2019-06-20T08:19:35.940Z,1.52
2019-06-20T08:22:04.195Z,1.40
2019-06-20T08:24:32.396Z,1.27
2019-06-20T08:27:00.611Z,1.32
2019-06-20T08:29:28.815Z,1.30
2019-06-20T08:31:57.928Z,1.37
2019-06-20T08:34:27.013Z,1.15
2019-06-20T08:36:57.178Z,1.30
2019-06-20T08:39:29.160Z,1.12
2019-06-20T08:41:55.451Z,1.37
2019-06-20T08:44:23.948Z,1.37
2019-06-20T08:46:52.188Z,1.20
2019-06-20T08:49:20.438Z,1.30
2019-06-20T08:51:48.684Z,1.17
2019-06-20T08:54:16.879Z,1.55
2019-06-20T08:56:45.151Z,1.25
2019-06-20T08:59:23.976Z,1.27
2019-06-20T09:01:43.902Z,1.10
2019-06-20T09:04:12.132Z,1.20
2019-06-20T09:06:40.324Z,1.25
2019-06-20T09:09:08.524Z,1.20
2019-06-20T09:11:36.736Z,1.30
2019-06-20T09:14:05.022Z,1.00
2019-06-20T09:16:33.243Z,1.15
2019-06-20T09:19:02.606Z,1.17
2019-06-20T09:21:30.950Z,1.20
2019-06-20T09:23:59.938Z,1.10
2019-06-20T09:26:28.244Z,1.10
2019-06-20T09:28:57.174Z,1.07
2019-06-20T09:31:25.584Z,1.00
2019-06-20T09:33:53.863Z,0.85
2019-06-20T09:36:22.108Z,0.93
2019-06-20T09:38:50.680Z,0.90
2019-06-20T09:41:20.346Z,1.00
2019-06-20T09:43:50.216Z,0.80
2019-06-20T09:46:18.505Z,1.00
2019-06-20T09:48:46.712Z,0.82
2019-06-20T09:51:14.936Z,1.00
2019-06-20T09:53:43.157Z,1.00
2019-06-20T09:56:11.434Z,1.05
2019-06-20T09:58:39.633Z,0.90
2019-06-20T10:01:07.841Z,0.90
2019-06-20T10:03:36.072Z,0.90
2019-06-20T10:06:13.418Z,0.90
2019-06-20T10:08:34.239Z,0.90
2019-06-20T10:11:02.445Z,1.07
2019-06-20T10:13:32.782Z,1.27
2019-06-20T10:18:28.171Z,1.17
2019-06-20T10:20:57.696Z,1.00
2019-06-20T10:23:26.060Z,1.30
2019-06-20T10:25:54.259Z,1.10
2019-06-20T10:28:22.476Z,1.20
2019-06-20T10:30:51.147Z,1.22
2019-06-20T10:33:19.510Z,1.37
2019-06-20T10:35:48.451Z,1.10
2019-06-20T10:38:16.679Z,0.93
2019-06-20T10:40:46.350Z,1.00
2019-06-20T10:43:14.982Z,1.00
2019-06-20T10:45:44.214Z,1.10
2019-06-20T10:48:13.132Z,1.20
2019-06-20T10:50:42.614Z,1.05
2019-06-20T10:53:11.308Z,1.00
2019-06-20T10:55:41.467Z,1.07
2019-06-20T10:58:09.625Z,1.00
2019-06-20T11:00:37.861Z,1.22
2019-06-20T11:03:06.072Z,1.02
2019-06-20T11:05:34.298Z,1.15
2019-06-20T11:08:02.504Z,0.95
2019-06-20T11:10:30.705Z,1.20
2019-06-20T11:12:58.928Z,1.20
2019-06-20T11:15:27.204Z,0.80
2019-06-20T11:17:56.911Z,0.80
2019-06-20T11:20:25.425Z,0.93
2019-06-20T11:22:53.624Z,1.05
2019-06-20T11:25:21.927Z,0.75
2019-06-20T11:27:50.149Z,0.80
2019-06-20T11:30:27.991Z,1.15
2019-06-20T11:32:56.203Z,0.80
2019-06-20T11:35:24.399Z,0.85
2019-06-20T11:37:52.608Z,1.05
2019-06-20T11:40:21.891Z,0.90
2019-06-20T11:42:50.264Z,1.02
2019-06-20T11:45:18.522Z,1.00
2019-06-20T11:47:47.336Z,0.90
2019-06-20T11:50:15.971Z,0.98
2019-06-20T11:52:45.758Z,0.90
2019-06-20T11:55:14.577Z,0.70
2019-06-20T11:57:42.887Z,1.00
2019-06-20T12:00:11.516Z,1.10
2019-06-20T12:02:42.000Z,0.90
2019-06-20T12:07:39.553Z,0.88
2019-06-20T12:10:07.564Z,0.90
2019-06-20T12:12:35.791Z,0.93
2019-06-20T12:15:08.348Z,0.80
2019-06-20T12:17:39.304Z,0.88
2019-06-20T12:20:07.087Z,1.00
2019-06-20T12:22:35.327Z,0.90
2019-06-20T12:25:05.594Z,1.10
2019-06-20T12:27:33.807Z,1.10
2019-06-20T12:30:02.290Z,1.00
2019-06-20T12:32:30.610Z,1.10
2019-06-20T12:34:58.856Z,1.00
2019-06-20T12:37:27.084Z,1.07
2019-06-20T12:39:56.946Z,1.10
2019-06-20T12:42:25.174Z,1.00
2019-06-20T12:44:53.471Z,1.22
2019-06-20T12:47:21.664Z,1.90
2019-06-20T12:49:50.719Z,1.40
2019-06-20T12:52:20.648Z,1.20
2019-06-20T12:54:50.515Z,1.27
2019-06-20T12:57:19.385Z,0.95
2019-06-20T12:59:48.288Z,1.00
2019-06-20T13:02:16.796Z,0.97
2019-06-20T13:04:45.996Z,0.90
2019-06-20T13:07:14.482Z,0.90
2019-06-20T13:09:43.969Z,0.90
2019-06-20T13:12:12.425Z,0.70
2019-06-20T13:14:40.905Z,0.88
2019-06-20T13:17:09.213Z,1.00
2019-06-20T13:19:37.745Z,0.80
2019-06-20T13:22:07.057Z,0.78
2019-06-20T13:24:35.283Z,0.90
2019-06-20T13:27:03.476Z,0.80
2019-06-20T13:29:31.689Z,0.90
2019-06-20T13:32:04.388Z,0.85
2019-06-20T13:34:29.822Z,0.80
2019-06-20T13:36:58.039Z,0.70
2019-06-20T13:39:26.244Z,0.80
2019-06-20T13:41:54.460Z,0.98
2019-06-20T13:44:23.645Z,1.07
2019-06-20T13:46:52.164Z,0.93
2019-06-20T13:49:20.386Z,1.00
2019-06-20T13:51:50.161Z,0.95
2019-06-20T13:54:18.601Z,1.10
2019-06-20T13:56:47.512Z,1.00
2019-06-20T13:59:15.847Z,0.90
2019-06-20T14:01:45.618Z,0.90
2019-06-20T14:06:42.553Z,1.00
2019-06-20T14:11:40.047Z,0.80
2019-06-20T14:14:09.236Z,1.02
2019-06-20T14:16:37.417Z,0.80
2019-06-20T14:19:05.627Z,0.78
2019-06-20T14:21:34.003Z,0.62
2019-06-20T14:24:02.228Z,0.80
2019-06-20T14:26:30.431Z,0.70
2019-06-20T14:28:58.636Z,0.70
2019-06-20T14:31:26.862Z,0.80
2019-06-20T14:33:55.572Z,0.95
2019-06-20T14:36:23.952Z,0.75
2019-06-20T14:38:52.155Z,0.65
2019-06-20T14:41:20.355Z,0.80
2019-06-20T14:43:49.646Z,0.70
2019-06-20T14:46:17.979Z,0.93
2019-06-20T14:48:47.313Z,0.80
2019-06-20T14:51:16.130Z,0.80
2019-06-20T14:53:45.640Z,1.20
2019-06-20T14:56:14.023Z,0.70
2019-06-20T14:58:44.756Z,0.90
2019-06-20T15:01:12.188Z,0.80
2019-06-20T15:03:40.388Z,0.98
2019-06-20T15:06:08.789Z,0.70
2019-06-20T15:08:36.986Z,0.90
2019-06-20T15:11:05.189Z,0.90
2019-06-20T15:13:33.397Z,0.80
2019-06-20T15:16:01.609Z,0.80
2019-06-20T15:18:29.815Z,0.70
2019-06-20T15:20:59.479Z,0.72
2019-06-20T15:23:28.014Z,0.72
2019-06-20T15:25:56.310Z,1.02
2019-06-20T15:28:24.555Z,1.05
2019-06-20T15:30:52.834Z,1.15
2019-06-20T15:33:21.057Z,1.67
2019-06-20T15:35:50.743Z,1.50
2019-06-20T15:38:19.202Z,1.65
2019-06-20T15:40:49.370Z,2.02
2019-06-20T15:43:17.329Z,1.72
2019-06-20T15:45:45.534Z,1.40
2019-06-20T15:48:13.745Z,1.80
2019-06-20T15:50:41.957Z,1.57
2019-06-20T15:53:10.185Z,2.25
2019-06-20T15:55:38.392Z,2.27
2019-06-20T15:58:06.622Z,2.00
2019-06-20T16:00:34.823Z,2.35
2019-06-20T16:03:09.797Z,2.00
2019-06-20T16:05:32.976Z,1.92
2019-06-20T16:08:01.184Z,2.20
2019-06-20T16:10:29.477Z,1.87
2019-06-20T16:12:57.684Z,1.55
2019-06-20T16:15:25.918Z,1.57
2019-06-20T16:17:54.108Z,1.42
2019-06-20T16:20:22.325Z,1.72
2019-06-20T16:22:50.532Z,1.27
2019-06-20T16:25:18.740Z,1.30
2019-06-20T16:27:46.953Z,1.57
2019-06-20T16:30:15.157Z,1.50
2019-06-20T16:32:43.406Z,0.93
2019-06-20T16:35:11.648Z,1.20
2019-06-20T16:37:39.873Z,1.20
2019-06-20T16:40:08.988Z,1.10
2019-06-20T16:42:37.205Z,1.10
2019-06-20T16:45:07.856Z,1.10
2019-06-20T16:47:36.069Z,1.10
2019-06-20T16:50:07.407Z,1.07
2019-06-20T16:52:35.629Z,1.22
2019-06-20T16:55:04.768Z,0.80
2019-06-20T16:57:33.028Z,1.05
2019-06-20T17:00:01.259Z,1.15
2019-06-20T17:02:29.487Z,0.90
2019-06-20T17:04:57.680Z,1.00
2019-06-20T17:07:25.880Z,1.20
2019-06-20T17:09:54.103Z,0.98
2019-06-20T17:12:22.308Z,0.80
2019-06-20T17:14:50.520Z,1.05
2019-06-20T17:17:18.725Z,0.90
2019-06-20T17:19:46.938Z,1.00
2019-06-20T17:22:15.132Z,1.07
2019-06-20T17:24:43.344Z,0.98
2019-06-20T17:27:11.545Z,0.93
2019-06-20T17:29:39.759Z,1.20
2019-06-20T17:32:07.963Z,3.05
2019-06-20T17:34:36.168Z,2.42
2019-06-20T17:37:04.376Z,1.87
2019-06-20T17:39:32.589Z,1.42
2019-06-20T17:42:00.802Z,1.10
2019-06-20T17:44:29.649Z,1.22
2019-06-20T17:46:57.986Z,1.10
2019-06-20T17:49:26.389Z,1.17
2019-06-20T17:51:54.605Z,1.20
2019-06-20T17:54:22.809Z,1.40
2019-06-20T17:56:51.032Z,1.42
2019-06-20T17:59:22.574Z,1.30
2019-06-20T18:01:49.251Z,1.12
2019-06-20T18:04:17.433Z,1.25
2019-06-20T18:06:45.647Z,1.35
2019-06-20T18:09:13.866Z,1.40
2019-06-20T18:11:42.069Z,1.20
2019-06-20T18:14:10.283Z,1.50
2019-06-20T18:16:38.476Z,1.52
2019-06-20T18:19:06.700Z,1.25
2019-06-20T18:21:34.901Z,1.30
2019-06-20T18:24:03.147Z,1.57
2019-06-20T18:26:31.336Z,1.37
2019-06-20T18:28:59.547Z,1.42
2019-06-20T18:31:27.816Z,1.40
2019-06-20T18:33:56.048Z,1.45
2019-06-20T18:36:24.256Z,1.50
2019-06-20T18:38:52.464Z,1.55
2019-06-20T18:41:20.685Z,2.85
2019-06-20T18:43:48.948Z,2.83
2019-06-20T18:46:17.199Z,2.17
2019-06-20T18:48:45.444Z,2.10
2019-06-20T18:51:13.719Z,1.87
2019-06-20T18:53:41.953Z,2.87
2019-06-20T18:56:10.178Z,2.20
2019-06-20T18:58:38.441Z,2.45
2019-06-20T19:01:06.694Z,2.58
2019-06-20T19:03:34.905Z,2.67
2019-06-20T19:06:03.172Z,2.75
2019-06-20T19:08:31.369Z,3.50
2019-06-20T19:10:59.628Z,3.52
2019-06-20T19:13:27.931Z,2.50
2019-06-20T19:15:56.194Z,2.50
2019-06-20T19:18:24.430Z,2.02
2019-06-20T19:20:52.636Z,2.62
2019-06-20T19:23:20.962Z,2.15
2019-06-20T19:25:49.257Z,2.50
2019-06-20T19:28:17.572Z,2.60
2019-06-20T19:30:48.546Z,2.58
2019-06-20T19:33:16.777Z,2.50
2019-06-20T19:35:45.028Z,2.52
2019-06-20T19:38:13.265Z,2.40
2019-06-20T19:40:47.358Z,2.70
2019-06-20T19:43:15.570Z,2.30
2019-06-20T19:45:43.812Z,2.67
2019-06-20T19:48:12.020Z,2.30
2019-06-20T19:50:40.568Z,2.77
2019-06-20T19:53:08.908Z,2.62
2019-06-20T19:55:37.212Z,2.92
2019-06-20T19:58:05.438Z,2.90
2019-06-20T20:00:33.668Z,2.87
2019-06-20T20:03:01.980Z,2.95
2019-06-20T20:05:30.293Z,3.35
2019-06-20T20:07:58.564Z,3.52
2019-06-20T20:10:32.607Z,3.10
2019-06-20T20:13:00.832Z,3.60
2019-06-20T20:15:29.038Z,3.72
2019-06-20T20:17:57.327Z,3.55
2019-06-20T20:20:25.560Z,4.17
2019-06-20T20:22:53.917Z,3.90
2019-06-20T20:25:22.115Z,3.90
2019-06-20T20:27:50.317Z,4.05
2019-06-20T20:30:18.546Z,4.33
2019-06-20T20:32:46.771Z,4.78
2019-06-20T20:35:14.965Z,4.85
2019-06-20T20:37:43.216Z,4.72
2019-06-20T20:40:11.431Z,5.45
2019-06-20T20:42:39.638Z,5.97
2019-06-20T20:45:07.889Z,5.62
2019-06-20T20:47:36.084Z,4.65
2019-06-20T20:50:06.136Z,4.60
2019-06-20T20:52:34.344Z,4.95
2019-06-20T20:55:02.628Z,4.92
2019-06-20T20:57:30.855Z,6.08
2019-06-20T20:59:59.082Z,5.58
2019-06-20T21:02:27.285Z,5.62
2019-06-20T21:04:55.494Z,5.78
2019-06-20T21:07:23.798Z,6.08
2019-06-20T21:09:52.032Z,5.85
2019-06-20T21:12:20.246Z,6.53
2019-06-20T21:14:48.557Z,6.37
2019-06-20T21:17:16.901Z,6.30
2019-06-20T21:19:45.181Z,6.70
2019-06-20T21:22:13.418Z,6.75
2019-06-20T21:24:41.740Z,6.40
2019-06-20T21:27:10.198Z,5.95
2019-06-20T21:29:38.468Z,6.80
2019-06-20T21:32:06.705Z,6.12
2019-06-20T21:34:34.881Z,6.90
2019-06-20T21:37:03.108Z,6.65
2019-06-20T21:39:31.334Z,7.00
2019-06-20T21:41:59.532Z,6.65
2019-06-20T21:44:27.766Z,6.67
2019-06-20T21:46:56.758Z,6.37
2019-06-20T21:49:24.985Z,6.65
2019-06-20T21:51:53.263Z,6.62
2019-06-20T21:54:21.535Z,6.35
2019-06-20T21:56:49.727Z,6.62
2019-06-20T21:59:17.934Z,6.80
2019-06-20T22:01:48.346Z,6.70
2019-06-20T22:04:16.156Z,6.45
2019-06-20T22:06:44.355Z,6.15
2019-06-20T22:09:12.583Z,6.78
2019-06-20T22:11:40.796Z,5.47
2019-06-20T22:14:09.006Z,6.10
2019-06-20T22:16:37.224Z,5.58
2019-06-20T22:19:05.444Z,6.42
2019-06-20T22:21:33.659Z,6.20
2019-06-20T22:24:01.922Z,6.17
2019-06-20T22:26:30.190Z,5.35
2019-06-20T22:28:58.480Z,5.30
2019-06-20T22:31:26.688Z,5.17
2019-06-20T22:33:54.896Z,5.97
2019-06-20T22:36:38.775Z,5.40
2019-06-20T22:38:53.058Z,5.55
2019-06-20T22:41:21.256Z,5.60
2019-06-20T22:43:49.477Z,5.00
2019-06-20T22:46:17.675Z,5.40
2019-06-20T22:48:45.925Z,5.22
2019-06-20T22:51:14.202Z,5.62
2019-06-20T22:53:42.400Z,5.47
2019-06-20T22:56:10.604Z,4.65
2019-06-20T22:58:38.822Z,5.40
2019-06-20T23:01:07.041Z,5.40
2019-06-20T23:03:35.228Z,5.72
2019-06-20T23:06:03.445Z,5.78
2019-06-20T23:08:31.657Z,5.58
2019-06-20T23:10:59.874Z,6.12
2019-06-20T23:13:28.079Z,6.50
2019-06-20T23:15:56.285Z,5.67
2019-06-20T23:18:24.524Z,6.20
2019-06-20T23:21:04.225Z,6.17
2019-06-20T23:23:22.653Z,6.33
2019-06-20T23:25:52.506Z,5.90
2019-06-20T23:28:20.709Z,6.92
2019-06-20T23:30:48.935Z,6.30
2019-06-20T23:33:17.184Z,6.72
2019-06-20T23:35:45.399Z,6.70
2019-06-20T23:38:13.615Z,6.50
2019-06-20T23:40:42.489Z,6.33
2019-06-20T23:43:10.763Z,6.67
2019-06-20T23:45:38.995Z,6.95
2019-06-20T23:48:07.227Z,6.95
2019-06-20T23:50:35.447Z,7.22
2019-06-20T23:53:05.288Z,7.67
2019-06-20T23:55:33.508Z,7.75
2019-06-20T23:58:01.803Z,6.80
